Dayton, OH

6:01 AM EST on February 07, 2016 (GMT -0500)
Kettering - Central | | Change Station
CLOSE
Current Station
Personal Weather Station
Location: Kettering, OH
Elevation: 1004 ft
Nearby Weather Stations

Elev 1004 ft 39.69 °N, 84.15 °W | Updated 58 seconds ago

Clear
Clear
35.0 °F
Feels Like 35.0 °F
N
3.0
Wind Variable Wind from SW
Gusts 6.0 mph

Today
High -- | Low -- °F
--% Chance of Precip.
Yesterday
High -- | Low -- °F
Precip. -- in
Pressure 30.12 in
Visibility 10.0 miles
Clouds Clear
Dew Point Not available.
Humidity Not available.
Rainfall Not available.
Snow Depth Not available.
7:38 AM 6:03 PM
Waning Crescent, 2% visible
METAR KMGY 071053Z AUTO 18003KT 10SM CLR M01/M06 A3010 RMK AO2 SLP198 T10061056
Pressure 30.12 in
Visibility 10.0 miles
Clouds Clear
Dew Point Not available.
Humidity Not available.
Rainfall Not available.
Snow Depth Not available.
7:38 AM 6:03 PM
Waning Crescent, 2% visible
METAR KMGY 071053Z AUTO 18003KT 10SM CLR M01/M06 A3010 RMK AO2 SLP198 T10061056

10-Day Weather Forecast

Almanac

Astronomy

Feb. 07, 2016 Rise Set
Actual Time
Civil Twilight
Nautical Twilight
Astronomical Twilight
Moon
Length of Visible Light
Length of Day
Tomorrow will be .
, % of the Moon is Illuminated

Today's Extremes

State Highs State Lows

Community

WunderPhotos

Upload Photos

1,891,170 photos uploaded!

WunderBlog® & News

Nearby

Air Quality

  Air Quality AQ Index Pollutant
Not available.

Snow Depth

Station Depth Elevation

Earthquake Activity

City Distance Mag. Time & Date
Minimum magnitude displayed is 2.5.

Coastal Water Temperatures

Place Temperature

Stations

Nearby Weather Stations

Station Location Temp. Windchill Dew Point Humidity Wind Precip. Elev Updated Type
                   

Watches & Warnings

There are currently no watches in effect.